sensor_id;sensor_type;location;lat;lon;timestamp;pressure;altitude;pressure_sealevel;temperature;humidity
71666;BME280;59503;53.486;10.196;2023-04-24T00:02:01;100058.75;;;11.12;100.00
71666;BME280;59503;53.486;10.196;2023-04-24T00:04:26;100060.69;;;11.11;100.00
71666;BME280;59503;53.486;10.196;2023-04-24T00:06:52;100048.63;;;11.09;100.00
71666;BME280;59503;53.486;10.196;2023-04-24T00:09:22;100038.09;;;11.00;100.00
71666;BME280;59503;53.486;10.196;2023-04-24T00:11:47;100040.81;;;11.00;100.00
71666;BME280;59503;53.486;10.196;2023-04-24T00:14:13;100036.19;;;11.08;100.00
71666;BME280;59503;53.486;10.196;2023-04-24T00:16:38;100047.06;;;11.04;100.00
71666;BME280;59503;53.486;10.196;2023-04-24T00:19:03;100038.47;;;10.95;100.00
71666;BME280;59503;53.486;10.196;2023-04-24T00:21:31;100041.94;;;10.92;100.00
71666;BME280;59503;53.486;10.196;2023-04-24T00:23:58;100020.94;;;10.86;100.00
71666;BME280;59503;53.486;10.196;2023-04-24T00:26:23;100038.03;;;10.86;100.00
71666;BME280;59503;53.486;10.196;2023-04-24T00:28:49;100044.63;;;10.82;100.00
71666;BME280;59503;53.486;10.196;2023-04-24T00:31:14;100037.63;;;10.84;100.00
71666;BME280;59503;53.486;10.196;2023-04-24T00:33:40;100026.72;;;10.77;100.00
71666;BME280;59503;53.486;10.196;2023-04-24T00:36:06;100035.69;;;10.81;100.00
71666;BME280;59503;53.486;10.196;2023-04-24T00:38:32;100026.34;;;10.82;100.00
71666;BME280;59503;53.486;10.196;2023-04-24T00:40:58;100026.72;;;10.77;100.00
71666;BME280;59503;53.486;10.196;2023-04-24T00:43:23;100030.19;;;10.71;100.00
71666;BME280;59503;53.486;10.196;2023-04-24T00:45:49;100030.91;;;10.64;100.00
71666;BME280;59503;53.486;10.196;2023-04-24T00:48:16;100022.75;;;10.64;100.00
71666;BME280;59503;53.486;10.196;2023-04-24T00:50:42;100018.84;;;10.58;100.00
71666;BME280;59503;53.486;10.196;2023-04-24T00:53:07;100016.53;;;10.64;100.00
71666;BME280;59503;53.486;10.196;2023-04-24T00:55:32;100019.63;;;10.62;100.00
71666;BME280;59503;53.486;10.196;2023-04-24T00:57:58;100015.38;;;10.61;100.00
71666;BME280;59503;53.486;10.196;2023-04-24T01:00:24;100017.31;;;10.64;100.00
71666;BME280;59503;53.486;10.196;2023-04-24T01:02:51;100008.41;;;10.67;100.00
71666;BME280;59503;53.486;10.196;2023-04-24T01:05:17;100014.59;;;10.64;100.00
71666;BME280;59503;53.486;10.196;2023-04-24T01:07:45;100018.84;;;10.62;100.00
71666;BME280;59503;53.486;10.196;2023-04-24T01:10:13;100002.91;;;10.53;100.00
71666;BME280;59503;53.486;10.196;2023-04-24T01:12:39;100006.75;;;10.52;100.00
71666;BME280;59503;53.486;10.196;2023-04-24T01:15:05;100020.41;;;10.63;100.00
71666;BME280;59503;53.486;10.196;2023-04-24T01:17:32;100010.69;;;10.58;100.00
71666;BME280;59503;53.486;10.196;2023-04-24T01:19:58;100021.56;;;10.58;100.00
71666;BME280;59503;53.486;10.196;2023-04-24T01:22:25;100016.13;;;10.58;100.00
71666;BME280;59503;53.486;10.196;2023-04-24T01:24:51;100025.41;;;10.54;100.00
71666;BME280;59503;53.486;10.196;2023-04-24T01:27:17;100019.19;;;10.50;100.00
71666;BME280;59503;53.486;10.196;2023-04-24T01:29:43;100015.22;;;10.40;100.00
71666;BME280;59503;53.486;10.196;2023-04-24T01:32:08;100008.66;;;10.41;100.00
71666;BME280;59503;53.486;10.196;2023-04-24T01:34:34;100010.16;;;10.39;100.00
71666;BME280;59503;53.486;10.196;2023-04-24T01:37:00;100011.69;;;10.33;100.00
71666;BME280;59503;53.486;10.196;2023-04-24T01:39:26;100013.66;;;10.39;100.00
71666;BME280;59503;53.486;10.196;2023-04-24T01:41:54;100010.50;;;10.30;100.00
71666;BME280;59503;53.486;10.196;2023-04-24T01:44:20;99995.75;;;10.31;100.00
71666;BME280;59503;53.486;10.196;2023-04-24T01:46:45;100000.09;;;10.39;100.00
71666;BME280;59503;53.486;10.196;2023-04-24T01:49:11;99988.00;;;10.30;100.00
71666;BME280;59503;53.486;10.196;2023-04-24T01:51:36;99987.16;;;10.22;100.00
71666;BME280;59503;53.486;10.196;2023-04-24T01:54:02;99988.28;;;10.18;100.00
71666;BME280;59503;53.486;10.196;2023-04-24T01:56:33;99991.38;;;10.16;100.00
71666;BME280;59503;53.486;10.196;2023-04-24T01:59:02;99985.84;;;10.05;100.00
71666;BME280;59503;53.486;10.196;2023-04-24T02:01:33;99987.34;;;9.99;100.00
71666;BME280;59503;53.486;10.196;2023-04-24T02:03:59;99985.34;;;9.93;100.00
71666;BME280;59503;53.486;10.196;2023-04-24T02:06:25;99986.50;;;9.92;100.00
71666;BME280;59503;53.486;10.196;2023-04-24T02:08:51;99977.88;;;9.83;100.00
71666;BME280;59503;53.486;10.196;2023-04-24T02:11:16;99977.50;;;9.81;100.00
71666;BME280;59503;53.486;10.196;2023-04-24T02:13:42;99984.78;;;9.73;100.00
71666;BME280;59503;53.486;10.196;2023-04-24T02:16:07;99985.16;;;9.72;100.00
71666;BME280;59503;53.486;10.196;2023-04-24T02:18:33;99986.28;;;9.67;100.00
71666;BME280;59503;53.486;10.196;2023-04-24T02:20:58;99982.31;;;9.58;100.00
71666;BME280;59503;53.486;10.196;2023-04-24T02:23:23;99993.50;;;9.53;100.00
71666;BME280;59503;53.486;10.196;2023-04-24T02:25:49;99993.13;;;9.51;100.00
71666;BME280;59503;53.486;10.196;2023-04-24T02:28:14;99997.38;;;9.52;100.00
71666;BME280;59503;53.486;10.196;2023-04-24T02:30:40;99995.00;;;9.47;100.00
71666;BME280;59503;53.486;10.196;2023-04-24T02:33:05;99992.63;;;9.42;100.00
71666;BME280;59503;53.486;10.196;2023-04-24T02:35:30;99991.84;;;9.41;100.00
71666;BME280;59503;53.486;10.196;2023-04-24T02:37:56;99997.28;;;9.45;100.00
71666;BME280;59503;53.486;10.196;2023-04-24T02:40:21;99982.03;;;9.30;100.00
71666;BME280;59503;53.486;10.196;2023-04-24T02:42:47;99988.25;;;9.30;100.00
71666;BME280;59503;53.486;10.196;2023-04-24T02:45:12;99989.44;;;9.36;100.00
71666;BME280;59503;53.486;10.196;2023-04-24T02:47:37;99979.34;;;9.33;100.00
71666;BME280;59503;53.486;10.196;2023-04-24T02:50:03;99989.03;;;9.34;100.00
71666;BME280;59503;53.486;10.196;2023-04-24T02:52:29;99979.09;;;9.45;100.00
71666;BME280;59503;53.486;10.196;2023-04-24T02:54:55;99977.97;;;9.50;100.00
71666;BME280;59503;53.486;10.196;2023-04-24T02:57:20;99974.88;;;9.51;100.00
71666;BME280;59503;53.486;10.196;2023-04-24T02:59:46;99972.88;;;9.45;100.00
71666;BME280;59503;53.486;10.196;2023-04-24T03:02:11;99976.09;;;9.54;100.00
71666;BME280;59503;53.486;10.196;2023-04-24T03:04:36;99972.53;;;9.50;100.00
71666;BME280;59503;53.486;10.196;2023-04-24T03:07:02;99974.13;;;9.51;100.00
71666;BME280;59503;53.486;10.196;2023-04-24T03:09:28;99982.22;;;9.47;100.00
71666;BME280;59503;53.486;10.196;2023-04-24T03:11:53;99978.28;;;9.41;100.00
71666;BME280;59503;53.486;10.196;2023-04-24T03:14:18;99977.19;;;9.49;100.00
71666;BME280;59503;53.486;10.196;2023-04-24T03:16:44;99974.78;;;9.41;100.00
71666;BME280;59503;53.486;10.196;2023-04-24T03:19:10;99974.34;;;9.35;100.00
71666;BME280;59503;53.486;10.196;2023-04-24T03:21:35;99972.84;;;9.41;100.00
71666;BME280;59503;53.486;10.196;2023-04-24T03:24:06;99978.22;;;9.38;100.00
71666;BME280;59503;53.486;10.196;2023-04-24T03:26:31;99980.53;;;9.32;100.00
71666;BME280;59503;53.486;10.196;2023-04-24T03:28:57;99977.75;;;9.29;100.00
71666;BME280;59503;53.486;10.196;2023-04-24T03:31:22;99980.44;;;9.25;100.00
71666;BME280;59503;53.486;10.196;2023-04-24T03:33:48;99973.44;;;9.24;100.00
71666;BME280;59503;53.486;10.196;2023-04-24T03:36:14;99974.22;;;9.25;100.00
71666;BME280;59503;53.486;10.196;2023-04-24T03:38:39;99970.69;;;9.21;100.00
71666;BME280;59503;53.486;10.196;2023-04-24T03:41:05;99971.47;;;9.21;100.00
71666;BME280;59503;53.486;10.196;2023-04-24T03:43:30;99967.97;;;9.17;100.00
71666;BME280;59503;53.486;10.196;2023-04-24T03:45:58;99970.69;;;9.21;100.00
71666;BME280;59503;53.486;10.196;2023-04-24T03:48:23;99971.50;;;9.25;100.00
71666;BME280;59503;53.486;10.196;2023-04-24T03:50:49;99980.03;;;9.23;100.00
71666;BME280;59503;53.486;10.196;2023-04-24T03:53:15;99973.66;;;9.09;100.00
71666;BME280;59503;53.486;10.196;2023-04-24T03:55:40;99978.09;;;9.24;100.00
71666;BME280;59503;53.486;10.196;2023-04-24T03:58:06;99973.28;;;9.10;100.00
71666;BME280;59503;53.486;10.196;2023-04-24T04:00:31;99976.81;;;9.14;100.00
71666;BME280;59503;53.486;10.196;2023-04-24T04:02:57;99969.41;;;9.11;100.00
71666;BME280;59503;53.486;10.196;2023-04-24T04:05:22;99979.75;;;8.99;100.00
71666;BME280;59503;53.486;10.196;2023-04-24T04:07:48;99975.50;;;9.01;100.00
71666;BME280;59503;53.486;10.196;2023-04-24T04:10:13;99973.16;;;9.00;100.00
71666;BME280;59503;53.486;10.196;2023-04-24T04:12:39;99971.91;;;8.90;100.00
71666;BME280;59503;53.486;10.196;2023-04-24T04:15:05;99974.50;;;8.83;100.00
71666;BME280;59503;53.486;10.196;2023-04-24T04:17:32;99979.03;;;8.75;100.00
71666;BME280;59503;53.486;10.196;2023-04-24T04:19:57;99977.72;;;8.62;100.00
71666;BME280;59503;53.486;10.196;2023-04-24T04:22:22;99980.38;;;8.59;100.00
71666;BME280;59503;53.486;10.196;2023-04-24T04:24:48;99977.19;;;8.53;100.00
71666;BME280;59503;53.486;10.196;2023-04-24T04:27:13;99976.38;;;8.49;100.00
71666;BME280;59503;53.486;10.196;2023-04-24T04:29:39;99993.38;;;8.46;100.00
71666;BME280;59503;53.486;10.196;2023-04-24T04:32:05;99996.09;;;8.46;100.00
71666;BME280;59503;53.486;10.196;2023-04-24T04:34:31;99998.84;;;8.50;100.00
71666;BME280;59503;53.486;10.196;2023-04-24T04:36:57;99989.09;;;8.45;100.00
71666;BME280;59503;53.486;10.196;2023-04-24T04:39:24;99983.94;;;8.37;100.00
71666;BME280;59503;53.486;10.196;2023-04-24T04:41:50;99992.78;;;8.34;100.00
71666;BME280;59503;53.486;10.196;2023-04-24T04:44:16;99990.44;;;8.32;100.00
71666;BME280;59503;53.486;10.196;2023-04-24T04:46:41;99983.28;;;8.21;100.00
71666;BME280;59503;53.486;10.196;2023-04-24T04:49:07;99992.19;;;8.21;100.00
71666;BME280;59503;53.486;10.196;2023-04-24T04:51:36;99993.31;;;8.20;100.00
71666;BME280;59503;53.486;10.196;2023-04-24T04:54:02;99985.09;;;8.13;100.00
71666;BME280;59503;53.486;10.196;2023-04-24T04:56:27;99985.56;;;8.19;100.00
71666;BME280;59503;53.486;10.196;2023-04-24T04:58:53;99987.53;;;8.22;100.00
71666;BME280;59503;53.486;10.196;2023-04-24T05:01:19;99971.22;;;8.15;100.00
71666;BME280;59503;53.486;10.196;2023-04-24T05:03:44;99978.91;;;8.13;100.00
71666;BME280;59503;53.486;10.196;2023-04-24T05:06:10;99984.34;;;8.13;100.00
71666;BME280;59503;53.486;10.196;2023-04-24T05:08:35;99989.59;;;8.25;100.00
71666;BME280;59503;53.486;10.196;2023-04-24T05:11:01;99985.56;;;8.19;100.00
71666;BME280;59503;53.486;10.196;2023-04-24T05:13:26;99989.59;;;8.28;100.00
71666;BME280;59503;53.486;10.196;2023-04-24T05:15:52;99987.00;;;8.35;100.00
71666;BME280;59503;53.486;10.196;2023-04-24T05:18:17;99993.13;;;8.55;100.00
71666;BME280;59503;53.486;10.196;2023-04-24T05:20:43;99987.88;;;8.69;100.00
71666;BME280;59503;53.486;10.196;2023-04-24T05:23:11;99988.06;;;8.83;100.00
71666;BME280;59503;53.486;10.196;2023-04-24T05:25:37;99982.31;;;8.88;100.00
71666;BME280;59503;53.486;10.196;2023-04-24T05:28:03;99980.06;;;8.94;100.00
71666;BME280;59503;53.486;10.196;2023-04-24T05:30:29;99979.47;;;9.11;100.00
71666;BME280;59503;53.486;10.196;2023-04-24T05:32:54;99982.34;;;9.25;100.00
71666;BME280;59503;53.486;10.196;2023-04-24T05:35:20;99992.22;;;9.40;100.00
71666;BME280;59503;53.486;10.196;2023-04-24T05:37:45;99989.28;;;9.55;100.00
71666;BME280;59503;53.486;10.196;2023-04-24T05:40:11;99998.81;;;9.79;100.00
71666;BME280;59503;53.486;10.196;2023-04-24T05:42:37;99993.94;;;9.98;100.00
71666;BME280;59503;53.486;10.196;2023-04-24T05:45:03;99995.28;;;10.19;100.00
71666;BME280;59503;53.486;10.196;2023-04-24T05:47:28;100003.22;;;10.41;100.00
71666;BME280;59503;53.486;10.196;2023-04-24T05:49:54;100003.31;;;10.62;100.00
71666;BME280;59503;53.486;10.196;2023-04-24T05:52:19;99995.69;;;10.82;100.00
71666;BME280;59503;53.486;10.196;2023-04-24T05:54:44;100002.38;;;11.09;100.00
71666;BME280;59503;53.486;10.196;2023-04-24T05:57:10;100002.06;;;11.24;100.00
71666;BME280;59503;53.486;10.196;2023-04-24T05:59:38;99997.41;;;11.21;100.00
71666;BME280;59503;53.486;10.196;2023-04-24T06:02:04;100006.03;;;11.48;100.00
71666;BME280;59503;53.486;10.196;2023-04-24T06:04:29;99995.19;;;11.73;100.00
71666;BME280;59503;53.486;10.196;2023-04-24T06:06:55;99997.97;;;11.94;100.00
71666;BME280;59503;53.486;10.196;2023-04-24T06:09:24;100002.63;;;12.18;100.00
71666;BME280;59503;53.486;10.196;2023-04-24T06:11:50;100001.84;;;12.24;100.00
71666;BME280;59503;53.486;10.196;2023-04-24T06:14:18;100009.25;;;12.38;100.00
71666;BME280;59503;53.486;10.196;2023-04-24T06:16:43;100011.97;;;12.38;100.00
71666;BME280;59503;53.486;10.196;2023-04-24T06:19:09;100008.44;;;12.48;100.00
71666;BME280;59503;53.486;10.196;2023-04-24T06:21:34;100006.84;;;12.58;98.44
71666;BME280;59503;53.486;10.196;2023-04-24T06:24:00;100011.16;;;12.52;98.27
71666;BME280;59503;53.486;10.196;2023-04-24T06:26:25;100008.81;;;12.53;94.76
71666;BME280;59503;53.486;10.196;2023-04-24T06:28:52;100006.06;;;12.57;94.56
71666;BME280;59503;53.486;10.196;2023-04-24T06:31:19;100017.38;;;12.63;96.21
71666;BME280;59503;53.486;10.196;2023-04-24T06:33:45;100023.97;;;12.72;96.90
71666;BME280;59503;53.486;10.196;2023-04-24T06:36:12;100013.44;;;12.81;90.10
71666;BME280;59503;53.486;10.196;2023-04-24T06:38:38;100017.66;;;13.00;93.03
71666;BME280;59503;53.486;10.196;2023-04-24T06:41:03;100023.47;;;13.09;91.74
71666;BME280;59503;53.486;10.196;2023-04-24T06:43:31;100012.97;;;13.07;91.21
71666;BME280;59503;53.486;10.196;2023-04-24T06:45:57;100021.91;;;13.18;90.55
71666;BME280;59503;53.486;10.196;2023-04-24T06:48:23;100023.41;;;13.26;94.85
71666;BME280;59503;53.486;10.196;2023-04-24T06:50:49;100020.31;;;13.21;87.70
71666;BME280;59503;53.486;10.196;2023-04-24T06:53:15;100014.00;;;13.38;87.09
71666;BME280;59503;53.486;10.196;2023-04-24T06:55:40;100019.13;;;13.29;87.09
71666;BME280;59503;53.486;10.196;2023-04-24T06:58:06;100014.44;;;13.26;86.69
71666;BME280;59503;53.486;10.196;2023-04-24T07:00:31;100021.38;;;13.44;87.58
71666;BME280;59503;53.486;10.196;2023-04-24T07:02:57;100018.53;;;13.65;88.43
71666;BME280;59503;53.486;10.196;2023-04-24T07:05:22;100021.88;;;13.91;86.21
71666;BME280;59503;53.486;10.196;2023-04-24T07:07:48;100007.88;;;13.85;80.33
71666;BME280;59503;53.486;10.196;2023-04-24T07:10:15;100013.44;;;13.67;80.27
71666;BME280;59503;53.486;10.196;2023-04-24T07:12:40;100014.19;;;13.71;81.95
71666;BME280;59503;53.486;10.196;2023-04-24T07:15:06;100012.97;;;13.80;82.42
71666;BME280;59503;53.486;10.196;2023-04-24T07:17:33;100025.44;;;13.88;79.29
71666;BME280;59503;53.486;10.196;2023-04-24T07:20:00;100020.38;;;14.34;81.80
71666;BME280;59503;53.486;10.196;2023-04-24T07:22:25;100018.69;;;14.47;78.58
71666;BME280;59503;53.486;10.196;2023-04-24T07:24:51;100028.31;;;14.62;78.66
71666;BME280;59503;53.486;10.196;2023-04-24T07:27:16;100027.72;;;14.44;73.41
71666;BME280;59503;53.486;10.196;2023-04-24T07:29:42;100030.25;;;14.21;79.77
71666;BME280;59503;53.486;10.196;2023-04-24T07:32:07;100026.38;;;14.15;76.93
71666;BME280;59503;53.486;10.196;2023-04-24T07:34:34;100030.03;;;14.49;77.53
71666;BME280;59503;53.486;10.196;2023-04-24T07:37:00;100036.47;;;14.69;74.01
71666;BME280;59503;53.486;10.196;2023-04-24T07:39:25;100042.53;;;14.87;73.42
71666;BME280;59503;53.486;10.196;2023-04-24T07:41:51;100045.53;;;15.33;73.74
71666;BME280;59503;53.486;10.196;2023-04-24T07:44:17;100030.31;;;15.89;68.67
71666;BME280;59503;53.486;10.196;2023-04-24T07:46:42;100032.97;;;15.66;69.52
71666;BME280;59503;53.486;10.196;2023-04-24T07:49:08;100045.69;;;15.79;66.47
71666;BME280;59503;53.486;10.196;2023-04-24T07:51:33;100048.66;;;15.92;64.78
71666;BME280;59503;53.486;10.196;2023-04-24T07:54:04;100052.09;;;15.69;66.19
71666;BME280;59503;53.486;10.196;2023-04-24T07:56:31;100033.69;;;15.96;63.70
71666;BME280;59503;53.486;10.196;2023-04-24T07:58:56;100036.25;;;16.34;63.18
71666;BME280;59503;53.486;10.196;2023-04-24T08:01:22;100025.38;;;16.27;60.18
71666;BME280;59503;53.486;10.196;2023-04-24T08:03:47;100028.63;;;16.45;63.32
71666;BME280;59503;53.486;10.196;2023-04-24T08:06:13;100036.19;;;15.87;62.56
71666;BME280;59503;53.486;10.196;2023-04-24T08:08:38;100047.50;;;15.89;65.17
71666;BME280;59503;53.486;10.196;2023-04-24T08:11:03;100050.91;;;15.44;66.81
71666;BME280;59503;53.486;10.196;2023-04-24T08:13:29;100052.63;;;15.27;66.91
71666;BME280;59503;53.486;10.196;2023-04-24T08:15:56;100055.16;;;15.11;64.15
71666;BME280;59503;53.486;10.196;2023-04-24T08:18:22;100056.50;;;14.59;68.36
71666;BME280;59503;53.486;10.196;2023-04-24T08:20:47;100047.66;;;14.85;67.82
71666;BME280;59503;53.486;10.196;2023-04-24T08:23:13;100063.19;;;14.95;70.18
71666;BME280;59503;53.486;10.196;2023-04-24T08:25:38;100065.81;;;15.02;70.67
71666;BME280;59503;53.486;10.196;2023-04-24T08:28:06;100079.53;;;14.98;66.78
71666;BME280;59503;53.486;10.196;2023-04-24T08:30:31;100065.47;;;14.63;69.16
71666;BME280;59503;53.486;10.196;2023-04-24T08:32:57;100074.66;;;14.79;71.04
71666;BME280;59503;53.486;10.196;2023-04-24T08:35:23;100074.16;;;15.62;66.46
71666;BME280;59503;53.486;10.196;2023-04-24T08:37:48;100080.38;;;15.29;63.16
71666;BME280;59503;53.486;10.196;2023-04-24T08:40:15;100076.31;;;15.44;67.09
71666;BME280;59503;53.486;10.196;2023-04-24T08:42:43;100063.59;;;16.14;61.89
71666;BME280;59503;53.486;10.196;2023-04-24T08:45:11;100064.78;;;16.63;61.71
71666;BME280;59503;53.486;10.196;2023-04-24T08:47:41;100072.13;;;16.89;58.51
71666;BME280;59503;53.486;10.196;2023-04-24T08:50:08;100077.81;;;17.21;56.75
71666;BME280;59503;53.486;10.196;2023-04-24T08:52:34;100069.50;;;17.05;57.48
71666;BME280;59503;53.486;10.196;2023-04-24T08:55:00;100064.53;;;16.54;58.74
71666;BME280;59503;53.486;10.196;2023-04-24T08:57:26;100062.47;;;15.85;62.95
71666;BME280;59503;53.486;10.196;2023-04-24T08:59:53;100078.09;;;15.58;64.91
71666;BME280;59503;53.486;10.196;2023-04-24T09:02:20;100085.34;;;15.71;62.93
71666;BME280;59503;53.486;10.196;2023-04-24T09:04:47;100087.06;;;15.28;66.57
71666;BME280;59503;53.486;10.196;2023-04-24T09:07:14;100083.78;;;15.44;68.32
71666;BME280;59503;53.486;10.196;2023-04-24T09:09:41;100089.28;;;15.37;66.45
71666;BME280;59503;53.486;10.196;2023-04-24T09:12:07;100091.06;;;15.20;67.08
71666;BME280;59503;53.486;10.196;2023-04-24T09:14:34;100094.16;;;15.22;68.48
71666;BME280;59503;53.486;10.196;2023-04-24T09:17:01;100090.19;;;14.93;65.86
71666;BME280;59503;53.486;10.196;2023-04-24T09:19:28;100084.22;;;15.02;65.17
71666;BME280;59503;53.486;10.196;2023-04-24T09:21:53;100098.69;;;14.98;65.98
71666;BME280;59503;53.486;10.196;2023-04-24T09:24:21;100087.56;;;14.79;65.77
71666;BME280;59503;53.486;10.196;2023-04-24T09:26:58;100090.13;;;14.56;68.16
71666;BME280;59503;53.486;10.196;2023-04-24T09:29:24;100100.53;;;14.27;67.04
71666;BME280;59503;53.486;10.196;2023-04-24T09:31:50;100101.78;;;14.09;68.67
71666;BME280;59503;53.486;10.196;2023-04-24T09:34:21;100093.63;;;14.02;69.45
71666;BME280;59503;53.486;10.196;2023-04-24T09:36:46;100102.13;;;14.18;68.09
71666;BME280;59503;53.486;10.196;2023-04-24T09:39:15;100110.84;;;14.53;66.35
71666;BME280;59503;53.486;10.196;2023-04-24T09:41:46;100099.63;;;14.41;65.41
71666;BME280;59503;53.486;10.196;2023-04-24T09:44:17;100102.31;;;14.48;67.13
71666;BME280;59503;53.486;10.196;2023-04-24T09:46:44;100095.53;;;14.63;63.66
71666;BME280;59503;53.486;10.196;2023-04-24T09:49:14;100091.91;;;14.29;66.41
71666;BME280;59503;53.486;10.196;2023-04-24T09:51:40;100101.84;;;14.56;66.42
71666;BME280;59503;53.486;10.196;2023-04-24T09:54:17;100101.88;;;14.53;64.65
71666;BME280;59503;53.486;10.196;2023-04-24T09:56:45;100099.72;;;14.23;64.84
71666;BME280;59503;53.486;10.196;2023-04-24T09:59:15;100090.81;;;14.16;65.43
71666;BME280;59503;53.486;10.196;2023-04-24T10:01:41;100094.13;;;14.44;65.43
71666;BME280;59503;53.486;10.196;2023-04-24T10:04:20;100101.09;;;14.52;65.03
71666;BME280;59503;53.486;10.196;2023-04-24T10:06:47;100096.56;;;14.32;65.32
71666;BME280;59503;53.486;10.196;2023-04-24T10:09:14;100094.66;;;14.29;67.23
71666;BME280;59503;53.486;10.196;2023-04-24T10:11:44;100100.38;;;14.45;65.72
71666;BME280;59503;53.486;10.196;2023-04-24T10:14:15;100102.41;;;14.34;66.92
71666;BME280;59503;53.486;10.196;2023-04-24T10:16:42;100095.06;;;14.20;66.23
71666;BME280;59503;53.486;10.196;2023-04-24T10:19:07;100102.75;;;14.43;66.97
71666;BME280;59503;53.486;10.196;2023-04-24T10:21:34;100103.47;;;14.91;64.48
71666;BME280;59503;53.486;10.196;2023-04-24T10:24:02;100099.78;;;15.08;65.46
71666;BME280;59503;53.486;10.196;2023-04-24T10:26:32;100104.81;;;15.13;63.86
71666;BME280;59503;53.486;10.196;2023-04-24T10:28:58;100105.00;;;14.95;62.96
71666;BME280;59503;53.486;10.196;2023-04-24T10:31:24;100109.06;;;14.77;63.97
71666;BME280;59503;53.486;10.196;2023-04-24T10:33:51;100104.75;;;14.83;62.98
71666;BME280;59503;53.486;10.196;2023-04-24T10:36:18;100112.00;;;14.56;63.97
71666;BME280;59503;53.486;10.196;2023-04-24T10:38:46;100107.06;;;14.37;65.05
71666;BME280;59503;53.486;10.196;2023-04-24T10:41:12;100107.47;;;14.35;67.30
71666;BME280;59503;53.486;10.196;2023-04-24T10:43:45;100104.91;;;14.11;67.62
71666;BME280;59503;53.486;10.196;2023-04-24T10:46:16;100116.59;;;14.11;66.76
71666;BME280;59503;53.486;10.196;2023-04-24T10:48:52;100112.72;;;14.09;67.80
71666;BME280;59503;53.486;10.196;2023-04-24T10:51:26;100113.84;;;14.11;66.96
71666;BME280;59503;53.486;10.196;2023-04-24T10:54:28;100111.31;;;14.45;65.95
71666;BME280;59503;53.486;10.196;2023-04-24T10:57:34;100108.03;;;14.64;63.68
71666;BME280;59503;53.486;10.196;2023-04-24T11:00:18;100109.50;;;14.72;65.95
71666;BME280;59503;53.486;10.196;2023-04-24T11:02:46;100117.13;;;14.94;62.57
71666;BME280;59503;53.486;10.196;2023-04-24T11:05:18;100114.16;;;14.78;62.73
71666;BME280;59503;53.486;10.196;2023-04-24T11:08:12;100103.94;;;14.86;63.69
71666;BME280;59503;53.486;10.196;2023-04-24T11:13:24;100105.25;;;15.08;61.07
71666;BME280;59503;53.486;10.196;2023-04-24T11:16:52;100113.75;;;15.84;60.27
71666;BME280;59503;53.486;10.196;2023-04-24T11:21:41;100109.19;;;15.74;55.95
71666;BME280;59503;53.486;10.196;2023-04-24T11:24:48;100099.94;;;15.91;57.40
71666;BME280;59503;53.486;10.196;2023-04-24T11:27:16;100102.06;;;15.80;58.68
71666;BME280;59503;53.486;10.196;2023-04-24T11:35:02;100110.28;;;15.80;58.03
71666;BME280;59503;53.486;10.196;2023-04-24T11:37:33;100101.78;;;16.01;56.01
71666;BME280;59503;53.486;10.196;2023-04-24T11:39:59;100097.94;;;15.95;55.36
71666;BME280;59503;53.486;10.196;2023-04-24T11:42:25;100103.63;;;16.35;54.50
71666;BME280;59503;53.486;10.196;2023-04-24T11:44:54;100103.44;;;15.95;54.51
71666;BME280;59503;53.486;10.196;2023-04-24T11:47:31;100099.25;;;15.57;54.35
71666;BME280;59503;53.486;10.196;2023-04-24T11:49:59;100101.78;;;15.71;55.57
71666;BME280;59503;53.486;10.196;2023-04-24T11:52:25;100107.19;;;16.05;56.98
71666;BME280;59503;53.486;10.196;2023-04-24T11:54:51;100105.94;;;16.86;55.21
71666;BME280;59503;53.486;10.196;2023-04-24T11:57:19;100107.00;;;16.69;53.27
71666;BME280;59503;53.486;10.196;2023-04-24T11:59:45;100102.56;;;17.60;53.38
71666;BME280;59503;53.486;10.196;2023-04-24T12:02:25;100089.03;;;17.50;50.27
71666;BME280;59503;53.486;10.196;2023-04-24T12:04:52;100099.97;;;17.53;50.53
71666;BME280;59503;53.486;10.196;2023-04-24T12:07:17;100110.81;;;17.60;50.27
71666;BME280;59503;53.486;10.196;2023-04-24T12:09:45;100101.91;;;17.72;50.83
71666;BME280;59503;53.486;10.196;2023-04-24T12:12:18;100100.50;;;17.25;49.89
71666;BME280;59503;53.486;10.196;2023-04-24T12:17:09;100096.91;;;17.08;51.10
71666;BME280;59503;53.486;10.196;2023-04-24T12:19:35;100092.22;;;17.05;50.81
71666;BME280;59503;53.486;10.196;2023-04-24T12:22:05;100099.72;;;16.82;51.29
71666;BME280;59503;53.486;10.196;2023-04-24T12:24:31;100106.34;;;16.84;50.83
71666;BME280;59503;53.486;10.196;2023-04-24T12:26:57;100100.81;;;16.65;52.21
71666;BME280;59503;53.486;10.196;2023-04-24T12:29:24;100104.16;;;16.53;50.94
71666;BME280;59503;53.486;10.196;2023-04-24T12:31:51;100106.88;;;15.99;53.23
71666;BME280;59503;53.486;10.196;2023-04-24T12:34:20;100102.88;;;16.07;54.31
71666;BME280;59503;53.486;10.196;2023-04-24T12:36:47;100104.25;;;15.92;52.54
71666;BME280;59503;53.486;10.196;2023-04-24T12:39:19;100111.38;;;15.56;54.24
71666;BME280;59503;53.486;10.196;2023-04-24T12:41:58;100097.25;;;15.24;55.20
71666;BME280;59503;53.486;10.196;2023-04-24T12:44:30;100108.50;;;14.96;55.42
71666;BME280;59503;53.486;10.196;2023-04-24T12:46:56;100108.50;;;14.55;56.71
71666;BME280;59503;53.486;10.196;2023-04-24T12:49:22;100120.84;;;14.26;59.00
71666;BME280;59503;53.486;10.196;2023-04-24T12:51:47;100110.38;;;14.07;59.74
71666;BME280;59503;53.486;10.196;2023-04-24T12:54:13;100119.06;;;13.88;61.00